Time;durP1;ratioP1;P1;durP2;ratioP2;P2;SDS_P1;SDS_P2;PMS_P1;PMS_P2;Temp;Humidity;BMP_temperature;BMP_pressure;BME280_temperature;BME280_humidity;BME280_pressure;Samples;Min_cycle;Max_cycle;Signal;HPM_P1;HPM_P2
2023/06/29 00:06:08;;;;;;;2.28;0.50;;;;;;;;;;20801220;28;20687;-68
2023/06/29 00:16:10;;;;;;;1.95;0.90;;;;;;;;;;20768387;28;20223;-68
2023/06/29 00:26:13;;;;;;;0.77;0.55;;;;;;;;;;20789738;28;20226;-68
2023/06/29 00:36:15;;;;;;;1.42;0.73;;;;;;;;;;20760380;28;20279;-68
2023/06/29 00:46:19;;;;;;;3.00;0.70;;;;;;;;;;20751427;28;20336;-68
2023/06/29 00:56:21;;;;;;;1.42;0.80;;;;;;;;;;20799153;28;20591;-68
2023/06/29 01:06:27;;;;;;;1.60;0.85;;;;;;;;;;20753814;28;20637;-68
2023/06/29 01:16:33;;;;;;;1.30;0.70;;;;;;;;;;20740128;28;20261;-68
2023/06/29 01:26:37;;;;;;;2.65;0.70;;;22.00;99.90;;;;;;20783840;28;20230;-68
2023/06/29 01:36:43;;;;;;;2.37;1.07;;;;;;;;;;20784172;28;20266;-68
2023/06/29 01:46:46;;;;;;;1.75;0.95;;;22.00;99.90;;;;;;20787246;28;20220;-68
2023/06/29 01:56:48;;;;;;;1.40;0.70;;;;;;;;;;20807598;28;20216;-68
2023/06/29 02:06:50;;;;;;;2.15;1.00;;;;;;;;;;20743609;23;20643;-65
2023/06/29 02:16:52;;;;;;;1.73;0.73;;;;;;;;;;20754457;28;20266;-65
2023/06/29 02:26:54;;;;;;;3.03;0.87;;;;;;;;;;20756097;28;20252;-65
2023/06/29 02:36:56;;;;;;;1.57;0.60;;;;;;;;;;20732779;28;20275;-65
2023/06/29 02:47:00;;;;;;;1.60;0.80;;;;;;;;;;20785878;28;20248;-65
2023/06/29 02:57:06;;;;;;;1.63;0.80;;;;;;;;;;20747671;28;20289;-65
2023/06/29 03:07:08;;;;;;;1.13;0.80;;;;;;;;;;20726679;28;20233;-65
2023/06/29 03:17:13;;;;;;;1.30;0.90;;;;;;;;;;20746948;28;20598;-65
2023/06/29 03:27:15;;;;;;;4.00;1.20;;;;;;;;;;20747324;28;20295;-65
2023/06/29 03:37:17;;;;;;;2.17;0.83;;;;;;;;;;20775994;28;20210;-65
2023/06/29 03:47:18;;;;;;;1.13;0.70;;;;;;;;;;20734222;28;20283;-66
2023/06/29 03:57:20;;;;;;;2.47;0.90;;;;;;;;;;20773014;28;20222;-65
2023/06/29 04:07:22;;;;;;;1.33;0.77;;;;;;;;;;20786202;28;20590;-65
2023/06/29 04:17:24;;;;;;;1.90;0.80;;;20.80;99.90;;;;;;20749575;28;20221;-66
2023/06/29 04:27:26;;;;;;;2.60;1.30;;;;;;;;;;20775377;28;20225;-67
2023/06/29 04:37:36;;;;;;;1.67;0.93;;;;;;;;;;20762759;28;20213;-67
2023/06/29 04:47:40;;;;;;;1.13;0.70;;;19.10;99.90;;;;;;20730297;28;20294;-67
2023/06/29 04:57:42;;;;;;;1.23;0.70;;;;;;;;;;20785964;28;20194;-67
2023/06/29 05:07:44;;;;;;;2.30;0.97;;;;;;;;;;20791321;28;20323;-67
2023/06/29 05:17:46;;;;;;;2.57;0.90;;;;;;;;;;20768084;28;20620;-67
2023/06/29 05:27:48;;;;;;;2.93;1.10;;;;;;;;;;20747123;28;20230;-67
2023/06/29 05:37:49;;;;;;;2.70;1.13;;;;;;;;;;20769891;28;20655;-67
2023/06/29 05:47:51;;;;;;;3.40;1.13;;;;;;;;;;20797288;28;20279;-67
2023/06/29 05:57:53;;;;;;;2.37;1.20;;;;;;;;;;20794787;28;20248;-67
2023/06/29 06:07:55;;;;;;;5.07;1.30;;;;;;;;;;20740667;28;20265;-67
2023/06/29 06:17:57;;;;;;;3.23;1.20;;;22.10;99.90;;;;;;20792900;28;20210;-67
2023/06/29 06:27:59;;;;;;;1.93;1.23;;;;;;;;;;20750446;28;20280;-67
2023/06/29 06:38:01;;;;;;;2.77;1.57;;;;;;;;;;20751450;28;20287;-67
2023/06/29 06:48:03;;;;;;;3.00;1.30;;;;;;;;;;20740361;28;20261;-67
2023/06/29 06:58:05;;;;;;;2.67;1.33;;;;;;;;;;20744174;28;20298;-67
2023/06/29 07:08:07;;;;;;;2.40;1.10;;;;;;;;;;20711342;28;20241;-67
2023/06/29 07:18:08;;;;;;;1.80;1.10;;;;;;;;;;20785877;28;20223;-67
2023/06/29 07:28:10;;;;;;;1.75;1.00;;;;;;;;;;20745735;28;20975;-67
2023/06/29 07:38:12;;;;;;;1.67;0.85;;;;;;;;;;20763329;28;20254;-67
2023/06/29 07:48:14;;;;;;;2.38;1.23;;;;;;;;;;20731458;28;20380;-67
2023/06/29 07:58:16;;;;;;;3.22;1.20;;;23.60;99.90;;;;;;20734810;28;20754;-67
2023/06/29 08:08:18;;;;;;;1.58;0.95;;;;;;;;;;20789309;23;20223;-77
2023/06/29 08:18:20;;;;;;;3.50;1.08;;;;;;;;;;20833523;28;20220;-77
2023/06/29 08:28:22;;;;;;;1.65;0.90;;;;;;;;;;20855269;28;20601;-77
2023/06/29 08:38:24;;;;;;;1.15;0.75;;;;;;;;;;20885437;28;20232;-78
2023/06/29 08:48:29;;;;;;;2.72;0.90;;;24.80;99.90;;;;;;20880434;28;20761;-79
2023/06/29 08:58:31;;;;;;;1.55;0.70;;;;;;;;;;20885370;28;20550;-76
2023/06/29 09:08:37;;;;;;;1.20;0.63;;;;;;;;;;20872346;28;20228;-79
2023/06/29 09:18:38;;;;;;;3.97;1.08;;;;;;;;;;20867174;28;20213;-78
2023/06/29 09:28:45;;;;;;;4.45;0.95;;;;;;;;;;20856827;28;20223;-77
2023/06/29 09:38:48;;;;;;;1.25;0.80;;;;;;;;;;20920951;28;20279;-77
2023/06/29 09:48:49;;;;;;;1.73;0.70;;;;;;;;;;20859430;28;20264;-77
2023/06/29 09:58:51;;;;;;;1.75;0.90;;;;;;;;;;20868162;28;20218;-77
2023/06/29 10:08:56;;;;;;;1.35;0.70;;;25.90;98.40;;;;;;20872489;28;20214;-76
2023/06/29 10:19:08;;;;;;;0.65;0.50;;;25.60;96.50;;;;;;20877113;28;20207;-75
2023/06/29 10:29:10;;;;;;;1.20;0.70;;;;;;;;;;20877761;28;20273;-76
2023/06/29 10:39:30;;;;;;;2.20;1.05;;;;;;;;;;20882296;28;20560;-77
2023/06/29 10:49:32;;;;;;;1.08;0.60;;;;;;;;;;20884702;28;20567;-77
2023/06/29 10:59:36;;;;;;;2.55;0.88;;;25.20;99.30;;;;;;20848799;28;20223;-75
2023/06/29 11:09:38;;;;;;;1.67;0.75;;;;;;;;;;20861711;28;20628;-76
2023/06/29 11:19:45;;;;;;;2.78;0.75;;;;;;;;;;20868654;28;20265;-75
2023/06/29 11:29:56;;;;;;;1.17;0.70;;;;;;;;;;20870291;28;20275;-77
2023/06/29 11:39:58;;;;;;;0.88;0.60;;;;;;;;;;20908495;28;20197;-77
2023/06/29 11:50:00;;;;;;;3.35;1.10;;;;;;;;;;20857354;28;20249;-76
2023/06/29 12:00:23;;;;;;;1.30;0.70;;;25.60;98.30;;;;;;20850485;28;20183;-77
2023/06/29 12:10:25;;;;;;;1.35;0.70;;;;;;;;;;20867229;28;20227;-77
2023/06/29 12:20:26;;;;;;;1.02;0.50;;;;;;;;;;20880533;28;20269;-75
2023/06/29 12:30:28;;;;;;;0.77;0.60;;;;;;;;;;20864623;28;20231;-76
2023/06/29 12:40:30;;;;;;;1.42;0.68;;;27.20;87.80;;;;;;20876234;28;20251;-76
2023/06/29 12:50:32;;;;;;;1.33;0.60;;;;;;;;;;20846441;28;20222;-76
2023/06/29 13:00:34;;;;;;;0.60;0.50;;;;;;;;;;20834837;28;20755;-76
2023/06/29 13:10:36;;;;;;;1.00;0.70;;;;;;;;;;20857681;28;20226;-76
2023/06/29 13:20:38;;;;;;;1.40;0.80;;;;;;;;;;20866252;28;20213;-76
2023/06/29 13:30:41;;;;;;;1.10;0.73;;;;;;;;;;20876691;28;20309;-76
2023/06/29 13:40:43;;;;;;;0.82;0.45;;;;;;;;;;20877816;28;20246;-76
2023/06/29 13:50:44;;;;;;;1.23;0.82;;;;;;;;;;20860393;28;20575;-75
2023/06/29 14:00:46;;;;;;;1.33;0.98;;;;;;;;;;20850254;28;20236;-77
2023/06/29 14:10:48;;;;;;;2.20;0.90;;;;;;;;;;20864125;28;20707;-77
2023/06/29 14:20:49;;;;;;;3.20;1.17;;;;;;;;;;20857612;23;20225;-68
2023/06/29 14:30:51;;;;;;;1.88;0.90;;;;;;;;;;20834816;28;20641;-69
2023/06/29 14:40:53;;;;;;;2.53;1.10;;;;;;;;;;20873530;28;20267;-68
2023/06/29 14:50:55;;;;;;;1.35;0.90;;;;;;;;;;20794187;28;20221;-68
2023/06/29 15:00:57;;;;;;;1.27;0.52;;;;;;;;;;20817806;28;20746;-69
2023/06/29 15:10:59;;;;;;;1.63;0.82;;;;;;;;;;20830954;28;20270;-69
2023/06/29 15:21:01;;;;;;;3.13;0.90;;;;;;;;;;20860805;28;20670;-69
2023/06/29 15:31:03;;;;;;;1.83;0.85;;;;;;;;;;20815024;28;20236;-69
2023/06/29 15:41:05;;;;;;;1.70;0.80;;;;;;;;;;20851128;28;20241;-68
2023/06/29 15:51:08;;;;;;;2.03;1.05;;;;;;;;;;20860765;28;20681;-69
2023/06/29 16:01:10;;;;;;;1.88;0.90;;;;;;;;;;20816506;28;20573;-69
2023/06/29 16:11:12;;;;;;;1.73;1.00;;;;;;;;;;20846935;28;20259;-68
2023/06/29 16:21:14;;;;;;;1.60;1.00;;;;;;;;;;20837286;28;20276;-68
2023/06/29 16:31:15;;;;;;;1.30;0.80;;;;;;;;;;20824873;28;20786;-68
2023/06/29 16:41:17;;;;;;;4.55;1.10;;;;;;;;;;20850272;28;20698;-68
2023/06/29 16:51:19;;;;;;;1.45;0.80;;;;;;;;;;20868190;28;20280;-68
2023/06/29 17:01:21;;;;;;;2.95;1.20;;;;;;;;;;20858710;28;20229;-68
2023/06/29 17:11:25;;;;;;;1.83;1.05;;;27.50;87.10;;;;;;20870151;28;20269;-68
2023/06/29 17:21:27;;;;;;;3.33;0.95;;;;;;;;;;20818474;28;20315;-69
2023/06/29 17:31:30;;;;;;;1.38;0.98;;;;;;;;;;20846357;28;20259;-69
2023/06/29 17:41:32;;;;;;;2.75;1.60;;;;;;;;;;20860401;28;20651;-69
2023/06/29 17:51:34;;;;;;;2.90;1.30;;;;;;;;;;20823125;28;20215;-69
2023/06/29 18:01:36;;;;;;;2.05;1.20;;;;;;;;;;20843054;28;20326;-69
2023/06/29 18:11:39;;;;;;;1.40;0.98;;;;;;;;;;20832583;28;20709;-69
2023/06/29 18:21:42;;;;;;;2.10;1.23;;;;;;;;;;20869591;28;20231;-69
2023/06/29 18:31:44;;;;;;;2.08;1.30;;;;;;;;;;20837524;28;20599;-69
2023/06/29 18:41:46;;;;;;;2.05;1.05;;;;;;;;;;20867427;28;20653;-69
2023/06/29 18:51:48;;;;;;;2.00;0.98;;;;;;;;;;20882749;28;20228;-70
2023/06/29 19:01:51;;;;;;;1.63;0.98;;;;;;;;;;20840566;28;20223;-69
2023/06/29 19:11:53;;;;;;;2.28;1.10;;;;;;;;;;20820188;28;20225;-69
2023/06/29 19:21:54;;;;;;;2.70;1.30;;;;;;;;;;20810703;28;20252;-69
2023/06/29 19:31:56;;;;;;;1.63;1.00;;;;;;;;;;20836843;28;20342;-70
2023/06/29 19:41:58;;;;;;;3.20;1.15;;;;;;;;;;20836281;28;20621;-69
2023/06/29 19:52:00;;;;;;;3.58;1.00;;;;;;;;;;20816299;28;20254;-69
2023/06/29 20:02:02;;;;;;;1.85;1.20;;;;;;;;;;20839704;28;20583;-69
2023/06/29 20:12:04;;;;;;;3.00;1.55;;;;;;;;;;20831031;28;20223;-69
2023/06/29 20:22:06;;;;;;;1.83;1.30;;;;;;;;;;20883195;23;20289;-70
2023/06/29 20:32:08;;;;;;;1.60;0.90;;;26.30;94.60;;;;;;20907580;28;20253;-70
2023/06/29 20:42:10;;;;;;;1.70;1.10;;;;;;;;;;20916738;28;20219;-70
2023/06/29 20:52:12;;;;;;;3.47;1.13;;;;;;;;;;20890170;28;20225;-70
2023/06/29 21:02:13;;;;;;;2.03;0.98;;;;;;;;;;20945473;28;20215;-70
2023/06/29 21:12:15;;;;;;;2.88;1.02;;;25.60;97.50;;;;;;20927375;28;20272;-69
2023/06/29 21:22:17;;;;;;;1.90;1.10;;;;;;;;;;20910373;28;20605;-70
2023/06/29 21:32:20;;;;;;;2.15;1.20;;;;;;;;;;20887507;28;20227;-70
2023/06/29 21:42:21;;;;;;;2.35;1.23;;;;;;;;;;20928694;28;20262;-70
2023/06/29 21:52:23;;;;;;;1.98;1.20;;;;;;;;;;20944929;28;20222;-70
2023/06/29 22:02:25;;;;;;;2.45;1.30;;;;;;;;;;20902871;28;20216;-70
2023/06/29 22:12:27;;;;;;;2.58;1.30;;;;;;;;;;20939853;28;20253;-71
2023/06/29 22:22:29;;;;;;;3.83;1.48;;;;;;;;;;20885450;28;20719;-70
2023/06/29 22:32:31;;;;;;;2.60;1.17;;;;;;;;;;20935580;28;20217;-70
2023/06/29 22:42:33;;;;;;;2.92;1.50;;;;;;;;;;20947815;28;20277;-70
2023/06/29 22:52:35;;;;;;;4.15;1.40;;;;;;;;;;20890757;28;20222;-70
2023/06/29 23:02:37;;;;;;;4.88;1.55;;;;;;;;;;20889122;28;20285;-70
2023/06/29 23:12:41;;;;;;;2.30;1.33;;;;;;;;;;20895910;28;20692;-70
2023/06/29 23:22:43;;;;;;;3.47;1.55;;;;;;;;;;20895005;28;20258;-70
2023/06/29 23:32:49;;;;;;;3.40;1.30;;;;;;;;;;20927544;28;20224;-70
2023/06/29 23:42:51;;;;;;;3.00;1.75;;;;;;;;;;20917606;28;20217;-70
2023/06/29 23:52:53;;;;;;;3.13;1.70;;;;;;;;;;20875107;28;20230;-70
